sensor_id;sensor_type;location;lat;lon;timestamp;temperature;humidity
28632;DHT22;15818;45.534;5.292;2022-10-31T00:01:19;16.00;99.90
28632;DHT22;15818;45.534;5.292;2022-10-31T00:03:45;16.00;99.90
28632;DHT22;15818;45.534;5.292;2022-10-31T00:06:11;16.00;99.90
28632;DHT22;15818;45.534;5.292;2022-10-31T00:08:37;16.00;99.90
28632;DHT22;15818;45.534;5.292;2022-10-31T00:11:03;16.00;99.90
28632;DHT22;15818;45.534;5.292;2022-10-31T00:13:28;16.00;99.90
28632;DHT22;15818;45.534;5.292;2022-10-31T00:15:54;16.00;99.90
28632;DHT22;15818;45.534;5.292;2022-10-31T00:18:19;16.10;99.90
28632;DHT22;15818;45.534;5.292;2022-10-31T00:20:45;16.10;99.90
28632;DHT22;15818;45.534;5.292;2022-10-31T00:23:11;16.10;99.90
28632;DHT22;15818;45.534;5.292;2022-10-31T00:25:38;16.10;99.90
28632;DHT22;15818;45.534;5.292;2022-10-31T00:28:05;16.10;99.90
28632;DHT22;15818;45.534;5.292;2022-10-31T00:30:32;16.10;99.90
28632;DHT22;15818;45.534;5.292;2022-10-31T00:32:58;16.10;99.90
28632;DHT22;15818;45.534;5.292;2022-10-31T00:35:23;16.10;99.90
28632;DHT22;15818;45.534;5.292;2022-10-31T00:37:49;16.10;99.90
28632;DHT22;15818;45.534;5.292;2022-10-31T00:40:15;16.10;99.90
28632;DHT22;15818;45.534;5.292;2022-10-31T00:42:41;16.10;99.90
28632;DHT22;15818;45.534;5.292;2022-10-31T00:45:09;16.00;99.90
28632;DHT22;15818;45.534;5.292;2022-10-31T00:47:34;16.00;99.90
28632;DHT22;15818;45.534;5.292;2022-10-31T00:50:00;15.90;99.90
28632;DHT22;15818;45.534;5.292;2022-10-31T00:52:26;16.00;99.90
28632;DHT22;15818;45.534;5.292;2022-10-31T00:54:51;16.00;99.90
28632;DHT22;15818;45.534;5.292;2022-10-31T00:57:17;15.90;99.90
28632;DHT22;15818;45.534;5.292;2022-10-31T00:59:42;16.00;99.90
28632;DHT22;15818;45.534;5.292;2022-10-31T01:02:08;16.00;99.90
28632;DHT22;15818;45.534;5.292;2022-10-31T01:04:34;16.00;99.90
28632;DHT22;15818;45.534;5.292;2022-10-31T01:06:59;16.00;99.90
28632;DHT22;15818;45.534;5.292;2022-10-31T01:09:25;16.00;99.90
28632;DHT22;15818;45.534;5.292;2022-10-31T01:11:50;16.00;99.90
28632;DHT22;15818;45.534;5.292;2022-10-31T01:14:16;16.00;99.90
28632;DHT22;15818;45.534;5.292;2022-10-31T01:16:42;16.00;99.90
28632;DHT22;15818;45.534;5.292;2022-10-31T01:19:07;16.00;99.90
28632;DHT22;15818;45.534;5.292;2022-10-31T01:21:33;16.00;99.90
28632;DHT22;15818;45.534;5.292;2022-10-31T01:23:59;16.00;99.90
28632;DHT22;15818;45.534;5.292;2022-10-31T01:26:26;16.00;99.90
28632;DHT22;15818;45.534;5.292;2022-10-31T01:28:54;16.00;99.90
28632;DHT22;15818;45.534;5.292;2022-10-31T01:31:22;16.00;99.90
28632;DHT22;15818;45.534;5.292;2022-10-31T01:33:48;16.00;99.90
28632;DHT22;15818;45.534;5.292;2022-10-31T01:36:33;16.00;99.90
28632;DHT22;15818;45.534;5.292;2022-10-31T01:39:04;15.90;99.90
28632;DHT22;15818;45.534;5.292;2022-10-31T01:41:33;15.90;99.90
28632;DHT22;15818;45.534;5.292;2022-10-31T01:44:02;15.90;99.90
28632;DHT22;15818;45.534;5.292;2022-10-31T01:46:37;15.90;99.90
28632;DHT22;15818;45.534;5.292;2022-10-31T01:49:14;15.90;99.90
28632;DHT22;15818;45.534;5.292;2022-10-31T01:52:00;15.80;99.90
28632;DHT22;15818;45.534;5.292;2022-10-31T01:54:32;15.80;99.90
28632;DHT22;15818;45.534;5.292;2022-10-31T01:56:59;15.80;99.90
28632;DHT22;15818;45.534;5.292;2022-10-31T01:59:28;15.80;99.90
28632;DHT22;15818;45.534;5.292;2022-10-31T02:01:55;15.80;99.90
28632;DHT22;15818;45.534;5.292;2022-10-31T02:04:20;15.80;99.90
28632;DHT22;15818;45.534;5.292;2022-10-31T02:06:53;15.70;99.90
28632;DHT22;15818;45.534;5.292;2022-10-31T02:09:20;15.80;99.90
28632;DHT22;15818;45.534;5.292;2022-10-31T02:11:51;15.70;99.90
28632;DHT22;15818;45.534;5.292;2022-10-31T02:14:18;15.70;99.90
28632;DHT22;15818;45.534;5.292;2022-10-31T02:16:44;15.70;99.90
28632;DHT22;15818;45.534;5.292;2022-10-31T02:19:10;15.70;99.90
28632;DHT22;15818;45.534;5.292;2022-10-31T02:21:50;15.70;99.90
28632;DHT22;15818;45.534;5.292;2022-10-31T02:35:46;15.60;99.90
28632;DHT22;15818;45.534;5.292;2022-10-31T02:41:15;15.50;99.90
28632;DHT22;15818;45.534;5.292;2022-10-31T02:43:50;15.50;99.90
28632;DHT22;15818;45.534;5.292;2022-10-31T02:46:47;15.50;99.90
28632;DHT22;15818;45.534;5.292;2022-10-31T02:49:40;15.50;99.90
28632;DHT22;15818;45.534;5.292;2022-10-31T02:52:20;15.40;99.90
28632;DHT22;15818;45.534;5.292;2022-10-31T02:54:47;15.40;99.90
28632;DHT22;15818;45.534;5.292;2022-10-31T02:57:14;15.50;99.90
28632;DHT22;15818;45.534;5.292;2022-10-31T02:59:46;15.50;99.90
28632;DHT22;15818;45.534;5.292;2022-10-31T03:02:29;15.40;99.90
28632;DHT22;15818;45.534;5.292;2022-10-31T03:10:35;15.60;99.90
28632;DHT22;15818;45.534;5.292;2022-10-31T03:13:30;15.60;99.90
28632;DHT22;15818;45.534;5.292;2022-10-31T03:18:41;15.60;99.90
28632;DHT22;15818;45.534;5.292;2022-10-31T03:21:30;15.60;99.90
28632;DHT22;15818;45.534;5.292;2022-10-31T03:23:59;15.50;99.90
28632;DHT22;15818;45.534;5.292;2022-10-31T03:26:26;15.50;99.90
28632;DHT22;15818;45.534;5.292;2022-10-31T03:29:15;15.50;99.90
28632;DHT22;15818;45.534;5.292;2022-10-31T03:31:50;15.50;99.90
28632;DHT22;15818;45.534;5.292;2022-10-31T03:34:17;15.50;99.90
28632;DHT22;15818;45.534;5.292;2022-10-31T03:36:45;15.40;99.90
28632;DHT22;15818;45.534;5.292;2022-10-31T03:39:14;15.40;99.90
28632;DHT22;15818;45.534;5.292;2022-10-31T03:42:05;15.30;99.90
28632;DHT22;15818;45.534;5.292;2022-10-31T03:44:32;15.40;99.90
28632;DHT22;15818;45.534;5.292;2022-10-31T03:46:58;15.30;99.90
28632;DHT22;15818;45.534;5.292;2022-10-31T03:49:25;15.30;99.90
28632;DHT22;15818;45.534;5.292;2022-10-31T03:51:55;15.30;99.90
28632;DHT22;15818;45.534;5.292;2022-10-31T03:54:44;15.40;99.90
28632;DHT22;15818;45.534;5.292;2022-10-31T03:59:54;15.40;99.90
28632;DHT22;15818;45.534;5.292;2022-10-31T04:02:27;15.40;99.90
28632;DHT22;15818;45.534;5.292;2022-10-31T04:04:54;15.50;99.90
28632;DHT22;15818;45.534;5.292;2022-10-31T04:07:21;15.50;99.90
28632;DHT22;15818;45.534;5.292;2022-10-31T04:09:50;15.60;99.90
28632;DHT22;15818;45.534;5.292;2022-10-31T04:12:16;15.60;99.90
28632;DHT22;15818;45.534;5.292;2022-10-31T04:14:46;15.70;99.90
28632;DHT22;15818;45.534;5.292;2022-10-31T04:17:16;15.80;99.90
28632;DHT22;15818;45.534;5.292;2022-10-31T04:19:43;15.80;99.90
28632;DHT22;15818;45.534;5.292;2022-10-31T04:22:09;15.80;99.90
28632;DHT22;15818;45.534;5.292;2022-10-31T04:24:35;15.80;99.90
28632;DHT22;15818;45.534;5.292;2022-10-31T04:27:02;15.80;99.90
28632;DHT22;15818;45.534;5.292;2022-10-31T04:29:28;15.80;99.90
28632;DHT22;15818;45.534;5.292;2022-10-31T04:31:53;15.80;99.90
28632;DHT22;15818;45.534;5.292;2022-10-31T04:34:19;15.80;99.90
28632;DHT22;15818;45.534;5.292;2022-10-31T04:36:44;15.80;99.90
28632;DHT22;15818;45.534;5.292;2022-10-31T04:39:10;15.80;99.90
28632;DHT22;15818;45.534;5.292;2022-10-31T04:41:35;15.80;99.90
28632;DHT22;15818;45.534;5.292;2022-10-31T04:44:01;15.70;99.90
28632;DHT22;15818;45.534;5.292;2022-10-31T04:46:27;15.70;99.90
28632;DHT22;15818;45.534;5.292;2022-10-31T04:48:52;15.60;99.90
28632;DHT22;15818;45.534;5.292;2022-10-31T04:51:18;15.70;99.90
28632;DHT22;15818;45.534;5.292;2022-10-31T04:53:44;15.70;99.90
28632;DHT22;15818;45.534;5.292;2022-10-31T04:56:09;15.70;99.90
28632;DHT22;15818;45.534;5.292;2022-10-31T04:58:35;15.60;99.90
28632;DHT22;15818;45.534;5.292;2022-10-31T05:01:00;15.60;99.90
28632;DHT22;15818;45.534;5.292;2022-10-31T05:03:26;15.60;99.90
28632;DHT22;15818;45.534;5.292;2022-10-31T05:05:52;15.60;99.90
28632;DHT22;15818;45.534;5.292;2022-10-31T05:08:17;15.60;99.90
28632;DHT22;15818;45.534;5.292;2022-10-31T05:10:43;15.60;99.90
28632;DHT22;15818;45.534;5.292;2022-10-31T05:13:09;15.60;99.90
28632;DHT22;15818;45.534;5.292;2022-10-31T05:15:34;15.60;99.90
28632;DHT22;15818;45.534;5.292;2022-10-31T05:18:00;15.60;99.90
28632;DHT22;15818;45.534;5.292;2022-10-31T05:20:28;15.60;99.90
28632;DHT22;15818;45.534;5.292;2022-10-31T05:22:55;15.60;99.90
28632;DHT22;15818;45.534;5.292;2022-10-31T05:25:24;15.60;99.90
28632;DHT22;15818;45.534;5.292;2022-10-31T05:27:50;15.60;99.90
28632;DHT22;15818;45.534;5.292;2022-10-31T05:30:20;15.50;99.90
28632;DHT22;15818;45.534;5.292;2022-10-31T05:32:48;15.50;99.90
28632;DHT22;15818;45.534;5.292;2022-10-31T05:35:22;15.50;99.90
28632;DHT22;15818;45.534;5.292;2022-10-31T05:37:49;15.50;99.90
28632;DHT22;15818;45.534;5.292;2022-10-31T05:40:17;15.50;99.90
28632;DHT22;15818;45.534;5.292;2022-10-31T05:42:43;15.50;99.90
28632;DHT22;15818;45.534;5.292;2022-10-31T05:45:12;15.50;99.90
28632;DHT22;15818;45.534;5.292;2022-10-31T05:47:38;15.50;99.90
28632;DHT22;15818;45.534;5.292;2022-10-31T05:50:04;15.50;99.90
28632;DHT22;15818;45.534;5.292;2022-10-31T05:52:30;15.50;99.90
28632;DHT22;15818;45.534;5.292;2022-10-31T05:54:55;15.50;99.90
28632;DHT22;15818;45.534;5.292;2022-10-31T05:57:21;15.50;99.90
28632;DHT22;15818;45.534;5.292;2022-10-31T05:59:46;15.40;99.90
28632;DHT22;15818;45.534;5.292;2022-10-31T06:02:12;15.50;99.90
28632;DHT22;15818;45.534;5.292;2022-10-31T06:04:38;15.50;99.90
28632;DHT22;15818;45.534;5.292;2022-10-31T06:07:03;15.40;99.90
28632;DHT22;15818;45.534;5.292;2022-10-31T06:09:29;15.40;99.90
28632;DHT22;15818;45.534;5.292;2022-10-31T06:11:55;15.40;99.90
28632;DHT22;15818;45.534;5.292;2022-10-31T06:14:20;15.40;99.90
28632;DHT22;15818;45.534;5.292;2022-10-31T06:16:46;15.40;99.90
28632;DHT22;15818;45.534;5.292;2022-10-31T06:19:11;15.40;99.90
28632;DHT22;15818;45.534;5.292;2022-10-31T06:21:37;15.40;99.90
28632;DHT22;15818;45.534;5.292;2022-10-31T06:24:03;15.40;99.90
28632;DHT22;15818;45.534;5.292;2022-10-31T06:26:28;15.50;99.90
28632;DHT22;15818;45.534;5.292;2022-10-31T06:28:54;15.50;99.90
28632;DHT22;15818;45.534;5.292;2022-10-31T06:31:20;15.50;99.90
28632;DHT22;15818;45.534;5.292;2022-10-31T06:33:45;15.50;99.90
28632;DHT22;15818;45.534;5.292;2022-10-31T06:36:11;15.40;99.90
28632;DHT22;15818;45.534;5.292;2022-10-31T06:38:36;15.50;99.90
28632;DHT22;15818;45.534;5.292;2022-10-31T06:41:02;15.50;99.90
28632;DHT22;15818;45.534;5.292;2022-10-31T06:43:29;15.40;99.90
28632;DHT22;15818;45.534;5.292;2022-10-31T06:45:55;15.50;99.90
28632;DHT22;15818;45.534;5.292;2022-10-31T06:48:21;15.50;99.90
28632;DHT22;15818;45.534;5.292;2022-10-31T06:50:47;15.60;99.90
28632;DHT22;15818;45.534;5.292;2022-10-31T06:53:12;15.60;99.90
28632;DHT22;15818;45.534;5.292;2022-10-31T06:55:39;15.70;99.90
28632;DHT22;15818;45.534;5.292;2022-10-31T06:58:05;15.70;99.90
28632;DHT22;15818;45.534;5.292;2022-10-31T07:00:31;15.70;99.90
28632;DHT22;15818;45.534;5.292;2022-10-31T07:03:00;15.80;99.90
28632;DHT22;15818;45.534;5.292;2022-10-31T07:05:27;15.90;99.90
28632;DHT22;15818;45.534;5.292;2022-10-31T07:08:00;16.00;99.90
28632;DHT22;15818;45.534;5.292;2022-10-31T07:10:28;16.20;99.90
28632;DHT22;15818;45.534;5.292;2022-10-31T07:12:58;16.20;99.90
28632;DHT22;15818;45.534;5.292;2022-10-31T07:15:24;16.20;99.90
28632;DHT22;15818;45.534;5.292;2022-10-31T07:17:50;16.20;99.90
28632;DHT22;15818;45.534;5.292;2022-10-31T07:20:16;16.20;99.90
28632;DHT22;15818;45.534;5.292;2022-10-31T07:22:42;16.30;99.90
28632;DHT22;15818;45.534;5.292;2022-10-31T07:25:07;16.40;99.90
28632;DHT22;15818;45.534;5.292;2022-10-31T07:27:37;16.30;99.90
28632;DHT22;15818;45.534;5.292;2022-10-31T07:30:03;16.40;99.90
28632;DHT22;15818;45.534;5.292;2022-10-31T07:32:55;16.20;99.90
28632;DHT22;15818;45.534;5.292;2022-10-31T07:35:23;16.30;99.90
28632;DHT22;15818;45.534;5.292;2022-10-31T07:37:49;16.40;99.90
28632;DHT22;15818;45.534;5.292;2022-10-31T07:40:15;16.30;99.90
28632;DHT22;15818;45.534;5.292;2022-10-31T07:42:43;16.30;99.90
28632;DHT22;15818;45.534;5.292;2022-10-31T07:45:12;16.50;99.90
28632;DHT22;15818;45.534;5.292;2022-10-31T07:47:48;16.50;99.90
28632;DHT22;15818;45.534;5.292;2022-10-31T07:50:22;16.50;99.90
28632;DHT22;15818;45.534;5.292;2022-10-31T07:52:48;16.40;99.90
28632;DHT22;15818;45.534;5.292;2022-10-31T07:55:22;16.40;99.90
28632;DHT22;15818;45.534;5.292;2022-10-31T08:00:23;16.60;99.90
28632;DHT22;15818;45.534;5.292;2022-10-31T08:02:55;16.60;99.90
28632;DHT22;15818;45.534;5.292;2022-10-31T08:05:21;16.60;99.90
28632;DHT22;15818;45.534;5.292;2022-10-31T08:07:47;16.50;99.90
28632;DHT22;15818;45.534;5.292;2022-10-31T08:10:12;16.70;99.90
28632;DHT22;15818;45.534;5.292;2022-10-31T08:12:38;16.80;99.90
28632;DHT22;15818;45.534;5.292;2022-10-31T08:15:04;16.90;99.90
28632;DHT22;15818;45.534;5.292;2022-10-31T08:17:29;17.10;99.90
28632;DHT22;15818;45.534;5.292;2022-10-31T08:19:55;17.20;99.90
28632;DHT22;15818;45.534;5.292;2022-10-31T08:22:21;17.70;99.90
28632;DHT22;15818;45.534;5.292;2022-10-31T08:24:46;18.00;99.90
28632;DHT22;15818;45.534;5.292;2022-10-31T08:27:12;17.60;99.90
28632;DHT22;15818;45.534;5.292;2022-10-31T08:29:37;17.60;99.90
28632;DHT22;15818;45.534;5.292;2022-10-31T08:32:03;17.30;99.90
28632;DHT22;15818;45.534;5.292;2022-10-31T08:34:29;17.00;99.90
28632;DHT22;15818;45.534;5.292;2022-10-31T08:36:55;17.10;99.90
28632;DHT22;15818;45.534;5.292;2022-10-31T08:39:20;17.00;99.90
28632;DHT22;15818;45.534;5.292;2022-10-31T08:41:46;17.10;99.90
28632;DHT22;15818;45.534;5.292;2022-10-31T08:44:11;17.10;99.90
28632;DHT22;15818;45.534;5.292;2022-10-31T08:46:37;17.50;99.90
28632;DHT22;15818;45.534;5.292;2022-10-31T08:49:03;17.80;99.90
28632;DHT22;15818;45.534;5.292;2022-10-31T08:51:28;18.50;99.90
28632;DHT22;15818;45.534;5.292;2022-10-31T08:53:54;18.80;99.90
28632;DHT22;15818;45.534;5.292;2022-10-31T08:56:20;18.20;99.90
28632;DHT22;15818;45.534;5.292;2022-10-31T08:58:47;18.20;99.90
28632;DHT22;15818;45.534;5.292;2022-10-31T09:01:13;18.60;99.90
28632;DHT22;15818;45.534;5.292;2022-10-31T09:03:38;18.50;99.90
28632;DHT22;15818;45.534;5.292;2022-10-31T09:06:04;19.40;99.90
28632;DHT22;15818;45.534;5.292;2022-10-31T09:08:34;20.50;99.90
28632;DHT22;15818;45.534;5.292;2022-10-31T09:11:01;21.10;99.90
28632;DHT22;15818;45.534;5.292;2022-10-31T09:13:26;21.20;99.90
28632;DHT22;15818;45.534;5.292;2022-10-31T09:15:52;21.50;99.90
28632;DHT22;15818;45.534;5.292;2022-10-31T09:18:22;21.90;99.90
28632;DHT22;15818;45.534;5.292;2022-10-31T09:20:49;21.50;99.90
28632;DHT22;15818;45.534;5.292;2022-10-31T09:23:17;22.60;99.90
28632;DHT22;15818;45.534;5.292;2022-10-31T09:25:44;22.30;99.90
28632;DHT22;15818;45.534;5.292;2022-10-31T09:28:14;23.20;99.90
28632;DHT22;15818;45.534;5.292;2022-10-31T09:30:40;22.30;99.90
28632;DHT22;15818;45.534;5.292;2022-10-31T09:33:13;22.70;99.90
28632;DHT22;15818;45.534;5.292;2022-10-31T09:35:39;22.50;99.90
28632;DHT22;15818;45.534;5.292;2022-10-31T09:38:10;23.00;99.90
28632;DHT22;15818;45.534;5.292;2022-10-31T09:40:38;23.40;99.90
28632;DHT22;15818;45.534;5.292;2022-10-31T09:46:01;23.40;99.90
28632;DHT22;15818;45.534;5.292;2022-10-31T09:51:15;23.60;99.90
28632;DHT22;15818;45.534;5.292;2022-10-31T09:53:49;22.90;99.90
28632;DHT22;15818;45.534;5.292;2022-10-31T09:56:19;23.30;99.90
28632;DHT22;15818;45.534;5.292;2022-10-31T09:58:50;23.20;99.90
28632;DHT22;15818;45.534;5.292;2022-10-31T10:01:34;23.50;99.90
28632;DHT22;15818;45.534;5.292;2022-10-31T10:07:05;22.40;99.90
28632;DHT22;15818;45.534;5.292;2022-10-31T10:09:33;21.60;99.90
28632;DHT22;15818;45.534;5.292;2022-10-31T10:14:55;21.20;99.90
28632;DHT22;15818;45.534;5.292;2022-10-31T10:17:52;21.20;99.90
28632;DHT22;15818;45.534;5.292;2022-10-31T10:26:20;23.30;99.90
28632;DHT22;15818;45.534;5.292;2022-10-31T10:29:01;24.20;99.90
28632;DHT22;15818;45.534;5.292;2022-10-31T10:31:33;24.50;99.90
28632;DHT22;15818;45.534;5.292;2022-10-31T10:34:34;22.30;99.90
28632;DHT22;15818;45.534;5.292;2022-10-31T10:37:11;22.40;99.90
28632;DHT22;15818;45.534;5.292;2022-10-31T10:39:45;22.80;99.90
28632;DHT22;15818;45.534;5.292;2022-10-31T10:42:14;22.70;99.90
28632;DHT22;15818;45.534;5.292;2022-10-31T10:44:59;21.50;99.90
28632;DHT22;15818;45.534;5.292;2022-10-31T10:47:50;21.20;99.90
28632;DHT22;15818;45.534;5.292;2022-10-31T10:50:24;21.80;99.90
28632;DHT22;15818;45.534;5.292;2022-10-31T10:55:41;22.10;99.90
28632;DHT22;15818;45.534;5.292;2022-10-31T10:58:10;22.60;99.90
28632;DHT22;15818;45.534;5.292;2022-10-31T11:00:42;22.90;99.90
28632;DHT22;15818;45.534;5.292;2022-10-31T11:03:09;24.00;99.90
28632;DHT22;15818;45.534;5.292;2022-10-31T11:05:50;23.70;99.90
28632;DHT22;15818;45.534;5.292;2022-10-31T11:08:25;23.50;99.90
28632;DHT22;15818;45.534;5.292;2022-10-31T11:11:19;24.30;99.90
28632;DHT22;15818;45.534;5.292;2022-10-31T11:13:50;23.80;99.90
28632;DHT22;15818;45.534;5.292;2022-10-31T11:16:28;24.10;99.90
28632;DHT22;15818;45.534;5.292;2022-10-31T11:19:07;23.50;99.90
28632;DHT22;15818;45.534;5.292;2022-10-31T11:21:34;23.90;99.90
28632;DHT22;15818;45.534;5.292;2022-10-31T11:26:34;24.60;99.90
28632;DHT22;15818;45.534;5.292;2022-10-31T11:29:03;24.90;99.90
28632;DHT22;15818;45.534;5.292;2022-10-31T11:31:29;25.00;99.90
28632;DHT22;15818;45.534;5.292;2022-10-31T11:34:04;24.40;99.90
28632;DHT22;15818;45.534;5.292;2022-10-31T11:36:34;24.70;99.90
28632;DHT22;15818;45.534;5.292;2022-10-31T11:39:03;24.40;99.90
28632;DHT22;15818;45.534;5.292;2022-10-31T11:41:34;23.80;99.90
28632;DHT22;15818;45.534;5.292;2022-10-31T11:44:14;24.50;99.90
28632;DHT22;15818;45.534;5.292;2022-10-31T11:46:50;24.80;99.90
28632;DHT22;15818;45.534;5.292;2022-10-31T11:49:37;23.80;99.90
28632;DHT22;15818;45.534;5.292;2022-10-31T11:52:16;23.90;99.90
28632;DHT22;15818;45.534;5.292;2022-10-31T11:54:51;23.70;99.90
28632;DHT22;15818;45.534;5.292;2022-10-31T11:57:48;23.60;99.90
28632;DHT22;15818;45.534;5.292;2022-10-31T12:02:47;22.10;99.90
28632;DHT22;15818;45.534;5.292;2022-10-31T12:05:23;21.90;99.90
28632;DHT22;15818;45.534;5.292;2022-10-31T12:07:53;23.20;99.90
28632;DHT22;15818;45.534;5.292;2022-10-31T12:10:23;24.10;99.90
28632;DHT22;15818;45.534;5.292;2022-10-31T12:13:27;22.90;99.90
28632;DHT22;15818;45.534;5.292;2022-10-31T12:19:06;21.80;99.90
28632;DHT22;15818;45.534;5.292;2022-10-31T12:24:37;23.60;99.90
28632;DHT22;15818;45.534;5.292;2022-10-31T12:43:33;23.90;99.90
28632;DHT22;15818;45.534;5.292;2022-10-31T12:46:02;24.00;99.90
28632;DHT22;15818;45.534;5.292;2022-10-31T12:51:17;23.60;99.90
28632;DHT22;15818;45.534;5.292;2022-10-31T13:02:18;25.00;99.90
28632;DHT22;15818;45.534;5.292;2022-10-31T13:04:55;22.90;99.90
28632;DHT22;15818;45.534;5.292;2022-10-31T13:07:39;21.60;99.90
28632;DHT22;15818;45.534;5.292;2022-10-31T13:15:55;21.30;99.90
28632;DHT22;15818;45.534;5.292;2022-10-31T13:18:31;22.10;99.90
28632;DHT22;15818;45.534;5.292;2022-10-31T13:21:01;21.00;99.90
28632;DHT22;15818;45.534;5.292;2022-10-31T13:23:36;20.60;99.90
28632;DHT22;15818;45.534;5.292;2022-10-31T13:29:24;22.10;99.90
28632;DHT22;15818;45.534;5.292;2022-10-31T13:31:51;21.70;99.90
28632;DHT22;15818;45.534;5.292;2022-10-31T13:34:35;22.40;99.90
28632;DHT22;15818;45.534;5.292;2022-10-31T13:37:37;22.50;99.90
28632;DHT22;15818;45.534;5.292;2022-10-31T13:42:51;22.80;99.90
28632;DHT22;15818;45.534;5.292;2022-10-31T13:45:21;21.90;99.90
28632;DHT22;15818;45.534;5.292;2022-10-31T13:47:58;21.20;99.90
28632;DHT22;15818;45.534;5.292;2022-10-31T13:50:25;20.90;99.90
28632;DHT22;15818;45.534;5.292;2022-10-31T13:52:51;21.20;99.90
28632;DHT22;15818;45.534;5.292;2022-10-31T13:55:38;20.90;99.90
28632;DHT22;15818;45.534;5.292;2022-10-31T13:58:05;21.20;99.90
28632;DHT22;15818;45.534;5.292;2022-10-31T14:00:44;21.70;99.90
28632;DHT22;15818;45.534;5.292;2022-10-31T14:03:19;21.70;99.90
28632;DHT22;15818;45.534;5.292;2022-10-31T14:05:52;21.70;99.90
28632;DHT22;15818;45.534;5.292;2022-10-31T14:08:21;21.50;99.90
28632;DHT22;15818;45.534;5.292;2022-10-31T14:10:50;21.10;99.90
28632;DHT22;15818;45.534;5.292;2022-10-31T14:15:54;20.80;99.90
28632;DHT22;15818;45.534;5.292;2022-10-31T14:20:48;20.70;99.90
28632;DHT22;15818;45.534;5.292;2022-10-31T14:23:34;20.70;99.90
28632;DHT22;15818;45.534;5.292;2022-10-31T14:32:05;20.40;99.90
28632;DHT22;15818;45.534;5.292;2022-10-31T14:34:40;20.30;99.90
28632;DHT22;15818;45.534;5.292;2022-10-31T14:50:50;19.70;99.90
28632;DHT22;15818;45.534;5.292;2022-10-31T14:53:26;19.70;99.90
28632;DHT22;15818;45.534;5.292;2022-10-31T14:55:53;19.70;99.90
28632;DHT22;15818;45.534;5.292;2022-10-31T14:58:35;19.60;99.90
28632;DHT22;15818;45.534;5.292;2022-10-31T15:01:02;19.60;99.90
28632;DHT22;15818;45.534;5.292;2022-10-31T15:06:02;19.60;99.90
28632;DHT22;15818;45.534;5.292;2022-10-31T15:08:46;19.60;99.90
28632;DHT22;15818;45.534;5.292;2022-10-31T15:11:23;19.70;99.90
28632;DHT22;15818;45.534;5.292;2022-10-31T15:13:57;19.70;99.90
28632;DHT22;15818;45.534;5.292;2022-10-31T15:16:28;19.60;99.90
28632;DHT22;15818;45.534;5.292;2022-10-31T15:18:59;19.60;99.90
28632;DHT22;15818;45.534;5.292;2022-10-31T15:21:26;19.50;99.90
28632;DHT22;15818;45.534;5.292;2022-10-31T15:23:58;19.50;99.90
28632;DHT22;15818;45.534;5.292;2022-10-31T15:26:35;19.50;99.90
28632;DHT22;15818;45.534;5.292;2022-10-31T15:29:05;19.50;99.90
28632;DHT22;15818;45.534;5.292;2022-10-31T15:31:31;19.50;99.90
28632;DHT22;15818;45.534;5.292;2022-10-31T15:34:04;19.40;99.90
28632;DHT22;15818;45.534;5.292;2022-10-31T15:36:31;19.50;99.90
28632;DHT22;15818;45.534;5.292;2022-10-31T15:38:59;19.50;99.90
28632;DHT22;15818;45.534;5.292;2022-10-31T15:42:13;19.50;99.90
28632;DHT22;15818;45.534;5.292;2022-10-31T15:44:16;19.50;99.90
28632;DHT22;15818;45.534;5.292;2022-10-31T15:46:55;19.50;99.90
28632;DHT22;15818;45.534;5.292;2022-10-31T15:52:12;19.30;99.90
28632;DHT22;15818;45.534;5.292;2022-10-31T15:54:48;19.20;99.90
28632;DHT22;15818;45.534;5.292;2022-10-31T15:57:14;19.20;99.90
28632;DHT22;15818;45.534;5.292;2022-10-31T15:59:44;19.10;99.90
28632;DHT22;15818;45.534;5.292;2022-10-31T16:02:12;19.10;99.90
28632;DHT22;15818;45.534;5.292;2022-10-31T16:07:20;19.00;99.90
28632;DHT22;15818;45.534;5.292;2022-10-31T16:10:00;19.00;99.90
28632;DHT22;15818;45.534;5.292;2022-10-31T16:14:57;18.90;99.90
28632;DHT22;15818;45.534;5.292;2022-10-31T16:17:25;18.90;99.90
28632;DHT22;15818;45.534;5.292;2022-10-31T16:19:58;18.80;99.90
28632;DHT22;15818;45.534;5.292;2022-10-31T16:22:28;18.80;99.90
28632;DHT22;15818;45.534;5.292;2022-10-31T16:24:59;18.80;99.90
28632;DHT22;15818;45.534;5.292;2022-10-31T16:27:29;18.80;99.90
28632;DHT22;15818;45.534;5.292;2022-10-31T16:29:57;18.80;99.90
28632;DHT22;15818;45.534;5.292;2022-10-31T16:35:18;18.80;99.90
28632;DHT22;15818;45.534;5.292;2022-10-31T16:37:48;18.80;99.90
28632;DHT22;15818;45.534;5.292;2022-10-31T16:40:14;18.70;99.90
28632;DHT22;15818;45.534;5.292;2022-10-31T16:42:41;18.70;99.90
28632;DHT22;15818;45.534;5.292;2022-10-31T16:45:14;18.80;99.90
28632;DHT22;15818;45.534;5.292;2022-10-31T16:47:41;18.90;99.90
28632;DHT22;15818;45.534;5.292;2022-10-31T16:50:20;18.90;99.90
28632;DHT22;15818;45.534;5.292;2022-10-31T16:52:46;18.90;99.90
28632;DHT22;15818;45.534;5.292;2022-10-31T16:55:16;18.90;99.90
28632;DHT22;15818;45.534;5.292;2022-10-31T16:57:45;18.90;99.90
28632;DHT22;15818;45.534;5.292;2022-10-31T17:00:16;18.70;99.90
28632;DHT22;15818;45.534;5.292;2022-10-31T17:02:43;18.80;99.90
28632;DHT22;15818;45.534;5.292;2022-10-31T17:05:12;18.70;99.90
28632;DHT22;15818;45.534;5.292;2022-10-31T17:07:39;18.60;99.90
28632;DHT22;15818;45.534;5.292;2022-10-31T17:10:06;18.50;99.90
28632;DHT22;15818;45.534;5.292;2022-10-31T17:12:32;18.50;99.90
28632;DHT22;15818;45.534;5.292;2022-10-31T17:14:58;18.50;99.90
28632;DHT22;15818;45.534;5.292;2022-10-31T17:17:23;18.50;99.90
28632;DHT22;15818;45.534;5.292;2022-10-31T17:19:49;18.40;99.90
28632;DHT22;15818;45.534;5.292;2022-10-31T17:22:15;18.30;99.90
28632;DHT22;15818;45.534;5.292;2022-10-31T17:24:40;18.30;99.90
28632;DHT22;15818;45.534;5.292;2022-10-31T17:27:06;18.30;99.90
28632;DHT22;15818;45.534;5.292;2022-10-31T17:29:32;18.20;99.90
28632;DHT22;15818;45.534;5.292;2022-10-31T17:31:58;18.20;99.90
28632;DHT22;15818;45.534;5.292;2022-10-31T17:34:24;18.20;99.90
28632;DHT22;15818;45.534;5.292;2022-10-31T17:36:51;18.10;99.90
28632;DHT22;15818;45.534;5.292;2022-10-31T17:39:18;18.10;99.90
28632;DHT22;15818;45.534;5.292;2022-10-31T17:41:44;18.10;99.90
28632;DHT22;15818;45.534;5.292;2022-10-31T17:44:10;18.00;99.90
28632;DHT22;15818;45.534;5.292;2022-10-31T17:46:36;18.00;99.90
28632;DHT22;15818;45.534;5.292;2022-10-31T17:49:03;18.00;99.90
28632;DHT22;15818;45.534;5.292;2022-10-31T17:51:31;18.00;99.90
28632;DHT22;15818;45.534;5.292;2022-10-31T17:53:57;18.00;99.90
28632;DHT22;15818;45.534;5.292;2022-10-31T17:56:23;18.10;99.90
28632;DHT22;15818;45.534;5.292;2022-10-31T17:58:48;18.20;99.90
28632;DHT22;15818;45.534;5.292;2022-10-31T18:01:16;18.20;99.90
28632;DHT22;15818;45.534;5.292;2022-10-31T18:03:42;18.20;99.90